Time;durP1;ratioP1;P1;durP2;ratioP2;P2;SDS_P1;SDS_P2;PMS_P1;PMS_P2;Temp;Humidity;BMP_temperature;BMP_pressure;BME280_temperature;BME280_humidity;BME280_pressure;Samples;Min_cycle;Max_cycle;Signal;HPM_P1;HPM_P2
2022/06/08 00:01:09;;;;;;;11.50;7.30;;;10.00;94.40;;;;;;5103338;28;20028;-85
2022/06/08 00:03:45;;;;;;;12.88;8.10;;;10.00;94.40;;;;;;5085993;28;20030;-85
2022/06/08 00:06:15;;;;;;;12.30;7.97;;;9.90;94.30;;;;;;5087018;28;20122;-85
2022/06/08 00:08:42;;;;;;;10.53;6.60;;;9.90;94.20;;;;;;5084644;28;20476;-85
2022/06/08 00:11:08;;;;;;;12.18;7.63;;;9.80;94.20;;;;;;5107649;28;20063;-85
2022/06/08 00:13:34;;;;;;;11.23;6.80;;;9.90;94.40;;;;;;5097135;27;20030;-85
2022/06/08 00:16:01;;;;;;;12.82;7.80;;;9.80;94.30;;;;;;5109302;28;20027;-85
2022/06/08 00:18:27;;;;;;;15.70;7.10;;;9.80;94.30;;;;;;5092601;28;20406;-85
2022/06/08 00:20:52;;;;;;;13.23;7.05;;;9.80;94.50;;;;;;5097053;28;20035;-85
2022/06/08 00:23:18;;;;;;;14.05;7.65;;;9.80;94.50;;;;;;5108104;27;20490;-85
2022/06/08 00:25:43;;;;;;;12.18;7.90;;;9.80;94.70;;;;;;5088617;28;20024;-85
2022/06/08 00:28:09;;;;;;;12.15;7.78;;;9.70;94.70;;;;;;5092972;28;20059;-85
2022/06/08 00:30:35;;;;;;;16.77;9.00;;;9.70;94.80;;;;;;5087897;28;20540;-85
2022/06/08 00:33:01;;;;;;;12.95;8.82;;;9.70;95.00;;;;;;5080202;28;20020;-85
2022/06/08 00:35:27;;;;;;;15.48;8.55;;;9.70;95.00;;;;;;5089299;28;20081;-85
2022/06/08 00:37:52;;;;;;;12.23;8.30;;;9.70;95.10;;;;;;5108118;28;20273;-85
2022/06/08 00:40:22;;;;;;;11.85;8.20;;;9.60;95.00;;;;;;5084675;28;20019;-86
2022/06/08 00:42:51;;;;;;;13.45;8.38;;;9.60;95.10;;;;;;5093135;28;20122;-85
2022/06/08 00:45:20;;;;;;;15.40;8.25;;;9.60;95.10;;;;;;5075686;28;20059;-85
2022/06/08 00:48:02;;;;;;;11.35;8.00;;;9.60;95.30;;;;;;5094068;28;20543;-85
2022/06/08 00:50:37;;;;;;;14.15;7.40;;;9.60;95.30;;;;;;5084706;28;20027;-85
2022/06/08 00:53:04;;;;;;;15.98;8.10;;;9.50;95.10;;;;;;5107146;28;20044;-85
2022/06/08 00:55:33;;;;;;;18.27;8.57;;;9.50;95.10;;;;;;5089227;28;20452;-85
2022/06/08 00:58:02;;;;;;;15.40;9.48;;;9.50;95.20;;;;;;5104698;28;20070;-85
2022/06/08 01:00:31;;;;;;;13.45;8.93;;;9.50;95.40;;;;;;5106692;28;20074;-86
2022/06/08 01:02:58;;;;;;;14.30;9.77;;;9.50;95.40;;;;;;5108859;28;20147;-86
2022/06/08 01:05:50;;;;;;;18.60;10.48;;;9.60;95.70;;;;;;5105704;28;20135;-86
2022/06/08 01:08:44;;;;;;;18.33;11.02;;;9.60;95.70;;;;;;5087743;28;20513;-86
2022/06/08 01:11:16;;;;;;;18.85;11.90;;;9.70;95.70;;;;;;5089012;28;20128;-86
2022/06/08 01:13:43;;;;;;;24.80;12.32;;;9.70;95.70;;;;;;5092759;28;20024;-86
2022/06/08 01:16:11;;;;;;;23.42;12.48;;;9.80;95.90;;;;;;5085823;28;20387;-86
2022/06/08 01:18:38;;;;;;;20.92;12.25;;;9.70;95.70;;;;;;5088538;28;20043;-86
2022/06/08 01:21:21;;;;;;;19.40;12.07;;;9.70;95.90;;;;;;5085980;28;20502;-86
2022/06/08 01:23:56;;;;;;;19.10;12.02;;;9.70;95.60;;;;;;5088799;28;20031;-86
2022/06/08 01:26:40;;;;;;;19.70;12.55;;;9.60;95.60;;;;;;5099944;28;20024;-86
2022/06/08 01:29:34;;;;;;;19.08;11.52;;;9.60;95.80;;;;;;5079028;28;20075;-86
2022/06/08 01:32:20;;;;;;;19.33;11.98;;;9.70;95.80;;;;;;5107038;28;20066;-86
2022/06/08 01:35:09;;;;;;;20.58;12.43;;;9.70;95.90;;;;;;5087816;28;20525;-86
2022/06/08 01:38:00;;;;;;;24.48;12.45;;;9.70;96.00;;;;;;5102058;28;20487;-86
2022/06/08 01:40:37;;;;;;;19.35;12.00;;;9.70;95.80;;;;;;5083881;28;20024;-85
2022/06/08 01:43:18;;;;;;;20.65;12.75;;;9.60;95.70;;;;;;5090908;28;20142;-85
2022/06/08 01:46:08;;;;;;;20.55;11.98;;;9.60;95.80;;;;;;5105353;28;20308;-86
2022/06/08 01:48:53;;;;;;;22.65;11.73;;;9.50;95.90;;;;;;5081929;28;20119;-85
2022/06/08 01:51:39;;;;;;;15.65;11.55;;;9.40;95.70;;;;;;5101207;28;20043;-85
2022/06/08 01:54:12;;;;;;;20.25;11.68;;;9.40;95.80;;;;;;5078506;28;20024;-85
2022/06/08 01:56:59;;;;;;;18.48;11.25;;;9.30;95.70;;;;;;5100158;28;20028;-85
2022/06/08 01:59:24;;;;;;;19.20;10.30;;;9.20;95.80;;;;;;5088106;28;20024;-86
2022/06/08 02:02:06;;;;;;;17.70;10.68;;;9.20;95.80;;;;;;5091753;28;20024;-86
2022/06/08 02:04:37;;;;;;;22.50;11.63;;;9.20;95.80;;;;;;5092622;28;20081;-86
2022/06/08 02:07:20;;;;;;;18.70;10.50;;;9.20;96.00;;;;;;5073241;28;20418;-86
2022/06/08 02:10:06;;;;;;;18.73;11.13;;;9.10;95.90;;;;;;5082729;28;20035;-86
2022/06/08 02:12:36;;;;;;;19.23;11.80;;;9.20;95.90;;;;;;5087842;28;20096;-86
2022/06/08 02:15:18;;;;;;;22.27;11.60;;;9.20;96.10;;;;;;5078001;28;20020;-86
2022/06/08 02:17:50;;;;;;;18.50;11.75;;;9.10;96.00;;;;;;5083840;28;20019;-86
2022/06/08 02:20:23;;;;;;;18.60;11.20;;;9.10;96.00;;;;;;5094053;28;20028;-86
2022/06/08 02:22:58;;;;;;;21.13;12.13;;;9.10;96.00;;;;;;5093276;28;20039;-85
2022/06/08 02:25:33;;;;;;;18.48;11.95;;;9.00;96.00;;;;;;5104913;28;20031;-85
2022/06/08 02:28:31;;;;;;;20.08;12.20;;;9.00;96.10;;;;;;5112432;28;20032;-85
2022/06/08 02:31:02;;;;;;;19.02;11.82;;;9.00;96.00;;;;;;5091404;28;20034;-85
2022/06/08 02:36:42;;;;;;;25.02;13.73;;;9.10;96.30;;;;;;5051196;28;20145;-86
2022/06/08 02:39:28;;;;;;;21.90;13.77;;;9.20;96.40;;;;;;5109791;27;20032;-85
2022/06/08 02:42:02;;;;;;;25.35;13.35;;;9.10;96.30;;;;;;5104793;28;20020;-85
2022/06/08 02:44:31;;;;;;;29.48;15.18;;;9.20;96.50;;;;;;5095233;28;20027;-85
2022/06/08 02:47:04;;;;;;;30.25;15.45;;;9.40;96.80;;;;;;5099597;28;20031;-85
2022/06/08 02:49:34;;;;;;;30.13;15.25;;;9.40;96.50;;;;;;5113939;28;20020;-85
2022/06/08 02:52:06;;;;;;;24.92;15.13;;;9.40;96.50;;;;;;5108102;28;20024;-85
2022/06/08 02:54:31;;;;;;;27.58;15.13;;;9.30;96.50;;;;;;5085248;27;20031;-85
2022/06/08 02:57:16;;;;;;;25.98;15.65;;;9.30;96.60;;;;;;5088787;28;20035;-85
2022/06/08 03:00:08;;;;;;;30.10;16.13;;;9.30;96.60;;;;;;5073137;27;20062;-85
2022/06/08 03:02:38;;;;;;;27.98;15.05;;;9.30;96.50;;;;;;5110002;28;20062;-85
2022/06/08 03:05:13;;;;;;;24.10;14.75;;;9.30;96.60;;;;;;5095772;28;20119;-85
2022/06/08 03:07:54;;;;;;;24.90;14.95;;;9.30;96.50;;;;;;5084783;28;20404;-85
2022/06/08 03:10:21;;;;;;;32.25;15.23;;;9.30;96.70;;;;;;5101927;28;20031;-85
2022/06/08 03:13:05;;;;;;;26.58;13.90;;;9.30;96.80;;;;;;5086446;28;20051;-86
2022/06/08 03:15:33;;;;;;;27.83;14.70;;;9.30;96.50;;;;;;5091203;28;20034;-86
2022/06/08 03:17:58;;;;;;;29.73;15.45;;;9.20;96.50;;;;;;5092721;28;20482;-86
2022/06/08 03:20:26;;;;;;;25.55;15.52;;;9.30;96.60;;;;;;5081558;28;20122;-86
2022/06/08 03:22:52;;;;;;;30.23;14.82;;;9.30;96.70;;;;;;5094286;28;20471;-85
2022/06/08 03:25:18;;;;;;;26.08;14.68;;;9.30;96.70;;;;;;5079903;28;20038;-86
2022/06/08 03:27:45;;;;;;;34.83;16.48;;;9.30;96.70;;;;;;5080548;28;20023;-86
2022/06/08 03:30:12;;;;;;;28.10;15.95;;;9.50;96.90;;;;;;5087517;28;20016;-86
2022/06/08 03:32:37;;;;;;;27.98;16.33;;;9.60;96.90;;;;;;5089804;28;20023;-86
2022/06/08 03:35:03;;;;;;;32.63;16.10;;;9.80;96.90;;;;;;5116177;27;20024;-86
2022/06/08 03:37:29;;;;;;;28.63;16.20;;;10.00;96.80;;;;;;5091237;27;20036;-85
2022/06/08 03:39:55;;;;;;;27.45;16.27;;;10.10;96.70;;;;;;5091354;28;20057;-86
2022/06/08 03:42:20;;;;;;;29.20;15.52;;;10.20;96.60;;;;;;5108575;28;20534;-86
2022/06/08 03:44:46;;;;;;;26.40;15.98;;;10.30;96.60;;;;;;5092953;28;20062;-86
2022/06/08 03:47:16;;;;;;;26.92;15.18;;;10.50;96.50;;;;;;5091602;28;20030;-86
2022/06/08 03:49:42;;;;;;;25.90;14.90;;;10.60;96.30;;;;;;5084958;28;20111;-86
2022/06/08 03:52:14;;;;;;;19.25;13.23;;;10.60;96.20;;;;;;5106630;28;20115;-86
2022/06/08 03:54:44;;;;;;;19.70;11.68;;;10.80;96.00;;;;;;5093695;28;20466;-86
2022/06/08 03:57:11;;;;;;;20.63;12.63;;;10.80;95.80;;;;;;5090931;28;20068;-85
2022/06/08 03:59:41;;;;;;;14.25;10.38;;;10.90;95.70;;;;;;5083654;28;20028;-85
2022/06/08 04:02:11;;;;;;;19.23;11.43;;;11.00;95.50;;;;;;5087805;28;20042;-86
2022/06/08 04:04:37;;;;;;;14.13;10.00;;;11.00;95.30;;;;;;5094274;28;20593;-86
2022/06/08 04:07:03;;;;;;;15.40;10.27;;;11.10;95.10;;;;;;5083870;28;20423;-86
2022/06/08 04:09:28;;;;;;;16.15;9.02;;;11.20;95.00;;;;;;5087928;28;20028;-86
2022/06/08 04:11:54;;;;;;;14.85;9.45;;;11.30;94.90;;;;;;5085887;28;20059;-86
2022/06/08 04:14:21;;;;;;;13.55;8.75;;;11.30;94.80;;;;;;5085402;28;20306;-85
2022/06/08 04:16:47;;;;;;;12.30;8.38;;;11.30;94.60;;;;;;5091295;27;20058;-85
2022/06/08 04:19:13;;;;;;;11.07;7.85;;;11.40;94.40;;;;;;5091879;28;20038;-85
2022/06/08 04:21:39;;;;;;;11.35;7.97;;;11.50;94.10;;;;;;5093515;28;20024;-85
2022/06/08 04:24:06;;;;;;;13.43;8.85;;;11.50;93.90;;;;;;5082739;28;20032;-85
2022/06/08 04:26:32;;;;;;;11.23;8.23;;;11.40;93.60;;;;;;5083447;28;20710;-85
2022/06/08 04:28:57;;;;;;;14.10;8.82;;;11.50;93.60;;;;;;5089516;28;20032;-84
2022/06/08 04:31:23;;;;;;;12.90;8.43;;;11.50;93.50;;;;;;5091906;28;20024;-85
2022/06/08 04:33:50;;;;;;;11.50;8.10;;;11.60;93.60;;;;;;5086407;28;20356;-85
2022/06/08 04:36:15;;;;;;;14.30;8.07;;;11.60;93.40;;;;;;5090140;28;20528;-85
2022/06/08 04:38:41;;;;;;;11.27;6.90;;;11.70;93.30;;;;;;5108893;28;20032;-85
2022/06/08 04:41:07;;;;;;;9.25;7.18;;;11.70;93.20;;;;;;5075444;28;20394;-85
2022/06/08 04:43:33;;;;;;;11.07;7.43;;;11.80;93.10;;;;;;5082949;28;20031;-85
2022/06/08 04:45:58;;;;;;;10.60;7.38;;;11.80;92.70;;;;;;5085147;27;20035;-85
2022/06/08 04:48:24;;;;;;;10.60;7.18;;;11.90;92.90;;;;;;5090531;28;20023;-85
2022/06/08 04:50:50;;;;;;;9.80;7.20;;;11.90;92.90;;;;;;5090753;28;20401;-85
2022/06/08 04:53:16;;;;;;;9.50;6.88;;;12.00;92.80;;;;;;5086733;28;20024;-85
2022/06/08 04:55:41;;;;;;;14.15;7.65;;;12.00;92.60;;;;;;5087945;28;20030;-85
2022/06/08 04:58:07;;;;;;;9.65;6.90;;;12.00;92.50;;;;;;5109486;28;21220;-85
2022/06/08 05:00:33;;;;;;;10.43;6.82;;;12.10;92.30;;;;;;5089877;28;20019;-85
2022/06/08 05:02:59;;;;;;;11.57;7.00;;;12.20;92.50;;;;;;5103793;27;20035;-85
2022/06/08 05:05:31;;;;;;;11.82;7.25;;;12.20;92.40;;;;;;5108895;28;20364;-85
2022/06/08 05:07:58;;;;;;;12.52;7.13;;;12.30;92.30;;;;;;5079376;28;20023;-85
2022/06/08 05:10:25;;;;;;;10.90;6.95;;;12.40;92.20;;;;;;5081331;28;20538;-85
2022/06/08 05:12:51;;;;;;;10.13;6.47;;;12.50;92.10;;;;;;5082505;28;20131;-84
2022/06/08 05:15:21;;;;;;;9.82;6.03;;;12.60;91.50;;;;;;5092269;28;20161;-84
2022/06/08 05:17:47;;;;;;;10.90;6.38;;;12.80;91.60;;;;;;5091321;28;20134;-85
2022/06/08 05:20:14;;;;;;;10.15;6.80;;;12.80;91.00;;;;;;5092217;28;20123;-85
2022/06/08 05:22:40;;;;;;;12.38;6.97;;;12.90;90.20;;;;;;5087150;28;20024;-85
2022/06/08 05:25:08;;;;;;;9.88;6.20;;;13.00;90.10;;;;;;5108403;28;20076;-85
2022/06/08 05:27:34;;;;;;;10.85;7.30;;;13.10;90.20;;;;;;5092920;28;20517;-85
2022/06/08 05:30:00;;;;;;;12.75;6.10;;;13.20;90.00;;;;;;5094527;28;20020;-85
2022/06/08 05:32:25;;;;;;;9.30;6.63;;;13.30;89.80;;;;;;5086579;28;20035;-85
2022/06/08 05:34:51;;;;;;;9.57;6.22;;;13.30;89.80;;;;;;5111198;28;20020;-85
2022/06/08 05:37:16;;;;;;;11.40;6.10;;;13.30;89.40;;;;;;5083313;28;20086;-85
2022/06/08 05:39:42;;;;;;;8.75;5.70;;;13.40;89.60;;;;;;5086224;28;20171;-84
2022/06/08 05:42:08;;;;;;;10.43;5.82;;;13.40;89.20;;;;;;5101474;28;20423;-84
2022/06/08 05:44:35;;;;;;;9.30;6.32;;;13.50;89.20;;;;;;5094174;28;20055;-84
2022/06/08 05:47:02;;;;;;;11.30;6.28;;;13.60;89.40;;;;;;5105450;28;20406;-84
2022/06/08 05:49:29;;;;;;;8.57;6.05;;;13.50;88.90;;;;;;5088262;28;20028;-84
2022/06/08 05:51:54;;;;;;;10.60;6.28;;;13.40;89.20;;;;;;5090357;28;20063;-84
2022/06/08 05:54:20;;;;;;;11.85;6.47;;;13.40;88.90;;;;;;5092746;28;20539;-84
2022/06/08 05:56:46;;;;;;;11.15;6.55;;;13.30;89.10;;;;;;5080653;28;20031;-84
2022/06/08 05:59:11;;;;;;;11.70;6.60;;;13.30;89.20;;;;;;5114034;28;20035;-84
2022/06/08 06:01:37;;;;;;;9.60;6.68;;;13.30;89.90;;;;;;5092558;28;20439;-84
2022/06/08 06:04:05;;;;;;;8.68;6.53;;;13.40;89.80;;;;;;5087739;28;20387;-84
2022/06/08 06:06:31;;;;;;;9.82;7.10;;;13.50;90.00;;;;;;5095858;28;20639;-84
2022/06/08 06:08:57;;;;;;;11.23;6.10;;;13.50;89.90;;;;;;5088833;28;20032;-84
2022/06/08 06:11:23;;;;;;;11.10;6.15;;;13.40;89.60;;;;;;5091644;28;20366;-84
2022/06/08 06:13:48;;;;;;;13.43;6.38;;;13.40;89.60;;;;;;5088244;28;20020;-84
2022/06/08 06:16:14;;;;;;;8.25;6.22;;;13.30;89.30;;;;;;5095290;28;20100;-84
2022/06/08 06:18:39;;;;;;;12.73;6.22;;;13.30;89.60;;;;;;5095671;28;20024;-84
2022/06/08 06:21:06;;;;;;;9.27;5.63;;;13.30;89.40;;;;;;5094979;28;20019;-84
2022/06/08 06:23:31;;;;;;;8.73;5.57;;;13.40;89.60;;;;;;5111862;28;20027;-84
2022/06/08 06:25:57;;;;;;;9.77;5.40;;;13.50;89.80;;;;;;5111684;28;20036;-84
2022/06/08 06:28:22;;;;;;;8.02;5.78;;;13.60;89.80;;;;;;5096594;28;20027;-84
2022/06/08 06:30:49;;;;;;;9.98;5.78;;;13.50;89.70;;;;;;5093776;28;20088;-84
2022/06/08 06:33:15;;;;;;;7.68;5.47;;;13.50;90.20;;;;;;5092795;28;20024;-84
2022/06/08 06:35:41;;;;;;;9.18;5.47;;;13.60;90.40;;;;;;5095471;28;20025;-84
2022/06/08 06:38:08;;;;;;;8.25;5.13;;;13.50;90.20;;;;;;5100970;27;20036;-84
2022/06/08 06:40:35;;;;;;;9.38;5.45;;;13.50;89.90;;;;;;5092260;28;20023;-84
2022/06/08 06:43:01;;;;;;;9.35;5.53;;;13.60;90.10;;;;;;5114570;28;20471;-84
2022/06/08 06:45:27;;;;;;;8.07;4.80;;;13.70;89.80;;;;;;5089516;28;20031;-85
2022/06/08 06:47:52;;;;;;;8.10;5.22;;;13.70;89.50;;;;;;5094107;28;20120;-84
2022/06/08 06:50:18;;;;;;;10.73;5.63;;;13.70;89.50;;;;;;5110872;28;20499;-84
2022/06/08 06:52:47;;;;;;;8.23;5.57;;;13.80;89.20;;;;;;5090619;28;20088;-84
2022/06/08 06:55:22;;;;;;;8.80;5.70;;;13.80;89.20;;;;;;5094989;28;20455;-84
2022/06/08 06:57:47;;;;;;;8.25;5.72;;;14.00;88.70;;;;;;5092857;28;20047;-84
2022/06/08 07:00:14;;;;;;;10.82;5.70;;;14.00;88.70;;;;;;5090070;28;20379;-84
2022/06/08 07:02:39;;;;;;;8.43;5.20;;;14.20;88.20;;;;;;5107944;27;20035;-84
2022/06/08 07:05:05;;;;;;;6.70;4.10;;;14.60;88.30;;;;;;5109260;27;20023;-84
2022/06/08 07:07:31;;;;;;;9.73;5.25;;;14.70;87.00;;;;;;5094957;28;20023;-85
2022/06/08 07:09:56;;;;;;;7.38;4.63;;;14.90;85.80;;;;;;5091701;27;20035;-85
2022/06/08 07:12:22;;;;;;;9.00;4.47;;;15.00;84.90;;;;;;5107394;27;20553;-85
2022/06/08 07:14:47;;;;;;;8.77;4.68;;;15.10;85.40;;;;;;5094993;28;20031;-85
2022/06/08 07:17:13;;;;;;;9.18;4.75;;;15.10;85.00;;;;;;5085360;28;20077;-84
2022/06/08 07:19:39;;;;;;;10.00;4.28;;;15.20;84.90;;;;;;5094312;28;20023;-85
2022/06/08 07:22:04;;;;;;;8.38;4.50;;;15.40;85.10;;;;;;5090059;28;20051;-85
2022/06/08 07:24:32;;;;;;;7.63;4.40;;;15.30;84.30;;;;;;5093154;28;20027;-85
2022/06/08 07:26:59;;;;;;;9.50;4.68;;;15.40;83.80;;;;;;5082981;27;20038;-84
2022/06/08 07:29:24;;;;;;;7.93;4.53;;;15.40;83.60;;;;;;5099079;28;20421;-84
2022/06/08 07:31:50;;;;;;;8.23;4.70;;;15.70;84.20;;;;;;5090797;28;20015;-84
2022/06/08 07:34:16;;;;;;;7.68;4.35;;;16.00;82.50;;;;;;5090039;28;20026;-84
2022/06/08 07:36:44;;;;;;;8.68;5.13;;;15.90;83.50;;;;;;5103585;27;20024;-84
2022/06/08 07:39:10;;;;;;;7.90;4.90;;;16.00;83.40;;;;;;5093073;27;20467;-85
2022/06/08 07:41:36;;;;;;;8.27;4.68;;;16.00;82.70;;;;;;5084261;28;20023;-85
2022/06/08 07:44:02;;;;;;;7.30;5.05;;;16.00;82.50;;;;;;5092989;28;20035;-85
2022/06/08 07:46:29;;;;;;;8.70;5.22;;;16.00;82.80;;;;;;5095015;28;20028;-84
2022/06/08 07:51:39;;;;;;;9.32;5.18;;;16.50;81.80;;;;;;5111775;28;20058;-83
2022/06/08 07:54:04;;;;;;;10.40;5.43;;;17.00;81.10;;;;;;5093488;28;20047;-82
2022/06/08 07:56:30;;;;;;;10.27;5.65;;;17.00;79.80;;;;;;5087331;27;20034;-83
2022/06/08 07:58:56;;;;;;;9.77;6.70;;;17.40;80.50;;;;;;5088296;28;20080;-83
2022/06/08 08:01:21;;;;;;;9.48;6.38;;;17.80;79.00;;;;;;5096672;27;20031;-83
2022/06/08 08:03:47;;;;;;;8.18;6.10;;;18.10;77.80;;;;;;5098672;28;20392;-82
2022/06/08 08:06:12;;;;;;;10.77;6.05;;;18.20;77.30;;;;;;5092680;27;20030;-83
2022/06/08 08:08:38;;;;;;;8.73;5.30;;;18.20;77.00;;;;;;5093243;27;20067;-82
2022/06/08 08:11:04;;;;;;;9.90;5.95;;;18.50;77.50;;;;;;5099974;28;20044;-82
2022/06/08 08:13:30;;;;;;;8.88;6.03;;;19.10;78.00;;;;;;5094159;28;20019;-83
2022/06/08 08:15:55;;;;;;;8.88;6.30;;;19.60;75.90;;;;;;5110181;28;20060;-83
2022/06/08 08:18:21;;;;;;;9.68;5.82;;;19.30;73.50;;;;;;5111509;27;20039;-83
2022/06/08 08:20:47;;;;;;;9.70;6.20;;;19.50;73.40;;;;;;5090458;28;20134;-82
2022/06/08 08:23:13;;;;;;;8.65;5.90;;;20.00;74.80;;;;;;5093949;28;20027;-83
2022/06/08 08:25:38;;;;;;;9.57;5.90;;;20.30;72.50;;;;;;5108473;27;20035;-83
2022/06/08 08:28:04;;;;;;;8.68;5.93;;;20.60;70.70;;;;;;5093679;28;20028;-84
2022/06/08 08:30:31;;;;;;;9.93;6.25;;;20.60;70.80;;;;;;5087657;28;20030;-84
2022/06/08 08:32:56;;;;;;;9.07;5.75;;;20.80;72.00;;;;;;5089508;28;20056;-84
2022/06/08 08:35:24;;;;;;;12.35;6.57;;;20.70;70.30;;;;;;5111745;27;20107;-84
2022/06/08 08:37:50;;;;;;;10.75;7.57;;;20.20;70.90;;;;;;5096365;28;20766;-84
2022/06/08 08:40:38;;;;;;;12.23;7.53;;;20.30;70.20;;;;;;5106193;27;20032;-84
2022/06/08 08:43:08;;;;;;;9.48;7.10;;;20.20;69.70;;;;;;5095058;27;20050;-84
2022/06/08 08:45:47;;;;;;;10.25;6.70;;;20.60;71.70;;;;;;5093931;28;20164;-84
2022/06/08 08:48:24;;;;;;;11.80;7.80;;;20.70;70.40;;;;;;5110610;28;20015;-83
2022/06/08 08:51:13;;;;;;;12.07;8.70;;;20.80;70.20;;;;;;5108193;28;20490;-84
2022/06/08 08:54:03;;;;;;;14.02;9.18;;;20.60;70.10;;;;;;5093140;28;20024;-84
2022/06/08 08:56:39;;;;;;;11.52;7.68;;;20.80;70.40;;;;;;5089775;28;20114;-83
2022/06/08 08:59:20;;;;;;;13.48;7.80;;;21.20;69.80;;;;;;5085937;28;20043;-83
2022/06/08 09:01:51;;;;;;;12.65;7.80;;;21.30;68.30;;;;;;5092121;28;20080;-83
2022/06/08 09:04:31;;;;;;;;;;;21.50;65.90;;;;;;5110336;28;20023;-83
2022/06/08 09:07:00;;;;;;;11.75;8.65;;;21.00;67.90;;;;;;5111004;28;19954;-83
2022/06/08 09:09:33;;;;;;;14.18;7.97;;;21.00;66.70;;;;;;5092107;27;20030;-83
2022/06/08 09:11:59;;;;;;;14.15;9.65;;;21.40;65.10;;;;;;5100992;28;20391;-83
2022/06/08 09:14:44;;;;;;;17.98;11.38;;;20.90;66.30;;;;;;5105810;28;20049;-82
2022/06/08 09:17:19;;;;;;;15.27;11.57;;;20.90;67.50;;;;;;5115844;28;20059;-82
2022/06/08 09:19:49;;;;;;;15.60;10.77;;;20.70;67.80;;;;;;5095989;28;20077;-83
2022/06/08 09:22:17;;;;;;;15.80;11.85;;;21.30;69.90;;;;;;5112717;28;20543;-83
2022/06/08 09:24:58;;;;;;;17.02;12.68;;;21.80;69.00;;;;;;5090248;28;20052;-85
2022/06/08 09:27:23;;;;;;;;;;;21.70;68.20;;;;;;5094031;28;20031;-84
2022/06/08 09:29:54;;;;;;;16.17;12.32;;;21.60;70.50;;;;;;5112749;28;20336;-84
2022/06/08 09:32:37;;;;;;;17.67;13.40;;;21.50;68.80;;;;;;5096116;28;20023;-84
2022/06/08 09:35:21;;;;;;;17.95;12.88;;;21.40;68.70;;;;;;5089261;28;20019;-85
2022/06/08 09:37:48;;;;;;;15.65;11.52;;;22.00;68.40;;;;;;5097411;28;20444;-85
2022/06/08 09:40:36;;;;;;;16.30;12.80;;;22.40;66.60;;;;;;5091939;28;20030;-84
2022/06/08 09:43:25;;;;;;;17.40;13.30;;;22.70;67.20;;;;;;5097050;28;20595;-85
2022/06/08 09:45:54;;;;;;;16.10;12.82;;;22.30;66.00;;;;;;5101554;27;20027;-85
2022/06/08 09:52:05;;;;;;;17.67;13.23;;;21.60;67.00;;;;;;5112159;27;20080;-85
2022/06/08 09:55:02;;;;;;;16.38;13.60;;;22.00;68.00;;;;;;5103257;28;20039;-85
2022/06/08 09:58:01;;;;;;;14.57;11.90;;;22.10;66.50;;;;;;5095881;28;20072;-85
2022/06/08 10:00:36;;;;;;;15.43;11.15;;;22.50;64.40;;;;;;5089289;28;20039;-85
2022/06/08 10:03:36;;;;;;;15.20;10.90;;;22.20;63.60;;;;;;5095490;28;20107;-85
2022/06/08 10:06:06;;;;;;;14.90;11.23;;;22.50;62.90;;;;;;5094541;28;20030;-85
2022/06/08 10:08:56;;;;;;;17.05;12.00;;;22.50;62.70;;;;;;5117794;27;20020;-85
2022/06/08 10:11:55;;;;;;;15.73;10.52;;;22.50;62.00;;;;;;5094823;28;20036;-85
2022/06/08 10:14:39;;;;;;;12.50;8.55;;;23.10;63.30;;;;;;5105429;28;20036;-85
2022/06/08 10:17:10;;;;;;;13.52;8.88;;;23.10;60.60;;;;;;5096953;28;20129;-85
2022/06/08 10:19:56;;;;;;;13.95;8.48;;;22.50;62.00;;;;;;5120764;27;20023;-85
2022/06/08 10:22:27;;;;;;;12.98;9.30;;;22.40;62.50;;;;;;5094818;28;20032;-85
2022/06/08 10:24:58;;;;;;;13.05;9.52;;;21.70;62.60;;;;;;5095240;27;20388;-85
2022/06/08 10:27:33;;;;;;;13.50;9.38;;;21.30;64.60;;;;;;5110222;28;20069;-85
2022/06/08 10:30:26;;;;;;;12.75;9.07;;;21.20;64.90;;;;;;5083580;28;20527;-84
2022/06/08 10:33:15;;;;;;;13.35;9.75;;;20.90;64.10;;;;;;5107222;28;20016;-85
2022/06/08 10:35:43;;;;;;;12.98;9.10;;;21.00;64.80;;;;;;5109546;27;20114;-84
2022/06/08 10:38:31;;;;;;;14.65;10.68;;;21.40;65.00;;;;;;5111955;28;20500;-85
2022/06/08 10:44:00;;;;;;;14.68;10.15;;;21.40;63.50;;;;;;5115311;27;20076;-85
2022/06/08 10:46:46;;;;;;;12.95;9.45;;;22.00;63.50;;;;;;5094831;28;20027;-84
2022/06/08 10:49:20;;;;;;;11.43;8.30;;;22.90;64.10;;;;;;5095871;28;20524;-85
2022/06/08 10:52:12;;;;;;;11.68;7.75;;;23.80;60.50;;;;;;5110908;27;20078;-85
2022/06/08 10:54:58;;;;;;;8.90;7.05;;;23.40;59.00;;;;;;5113081;28;20557;-85
2022/06/08 10:57:36;;;;;;;9.45;6.85;;;23.20;59.40;;;;;;5094213;28;20024;-85
2022/06/08 11:00:47;;;;;;;9.13;5.78;;;23.00;59.00;;;;;;5096378;28;20393;-85
2022/06/08 11:03:42;;;;;;;8.07;5.32;;;23.00;56.10;;;;;;5077867;28;20043;-84
2022/06/08 11:06:31;;;;;;;8.48;5.68;;;23.40;57.90;;;;;;5081991;28;20199;-85
2022/06/08 11:08:58;;;;;;;8.40;5.25;;;23.70;56.10;;;;;;5095442;28;20034;-84
2022/06/08 11:11:49;;;;;;;7.68;4.53;;;24.40;54.30;;;;;;5105085;28;20031;-84
2022/06/08 11:14:52;;;;;;;8.05;4.93;;;24.30;52.40;;;;;;5083348;28;20497;-85
2022/06/08 11:17:31;;;;;;;7.55;4.60;;;24.10;51.40;;;;;;5082252;28;20028;-85
2022/06/08 11:20:20;;;;;;;5.22;3.78;;;24.50;51.50;;;;;;5110189;28;20088;-85
2022/06/08 11:22:52;;;;;;;6.82;4.65;;;25.10;49.20;;;;;;5082591;28;20044;-85
2022/06/08 11:25:27;;;;;;;5.78;3.80;;;25.20;50.10;;;;;;5091631;27;20509;-85
2022/06/08 11:28:28;;;;;;;6.13;3.92;;;25.20;50.70;;;;;;5109239;27;20027;-85
2022/06/08 11:30:58;;;;;;;6.55;4.22;;;24.30;51.10;;;;;;5095500;28;20020;-85
2022/06/08 11:34:02;;;;;;;6.68;4.70;;;23.60;53.40;;;;;;5114869;27;20482;-85
2022/06/08 11:36:47;;;;;;;6.38;4.45;;;23.60;53.50;;;;;;5086281;28;20023;-85
2022/06/08 11:39:30;;;;;;;7.13;3.80;;;23.30;55.00;;;;;;5094649;28;20027;-85
2022/06/08 11:42:22;;;;;;;8.18;4.90;;;23.50;56.70;;;;;;5111770;28;20514;-85
2022/06/08 11:44:56;;;;;;;7.03;4.75;;;23.90;54.50;;;;;;5104067;28;20020;-85
2022/06/08 11:48:01;;;;;;;7.50;4.93;;;24.70;52.50;;;;;;5093321;28;20028;-85
2022/06/08 11:50:44;;;;;;;7.13;4.90;;;25.40;50.90;;;;;;5054691;28;20050;-85
2022/06/08 11:53:40;;;;;;;8.05;5.53;;;25.70;50.80;;;;;;5107945;28;20503;-85
2022/06/08 11:56:13;;;;;;;7.53;4.88;;;25.10;51.30;;;;;;5093108;28;20036;-85
2022/06/08 11:58:48;;;;;;;7.07;4.57;;;25.00;50.30;;;;;;5093681;28;20436;-85
2022/06/08 12:01:18;;;;;;;7.03;4.35;;;24.20;53.30;;;;;;5113698;27;20084;-85
2022/06/08 12:03:47;;;;;;;6.45;4.15;;;24.70;50.60;;;;;;5092597;28;20039;-85
2022/06/08 12:06:33;;;;;;;6.97;4.72;;;25.40;51.60;;;;;;5093854;28;20028;-83
2022/06/08 12:09:06;;;;;;;6.88;5.10;;;25.20;49.80;;;;;;5094605;28;20534;-83
2022/06/08 12:11:34;;;;;;;8.75;5.30;;;25.80;50.30;;;;;;5092366;28;20093;-83
2022/06/08 12:14:13;;;;;;;7.10;5.35;;;27.00;46.60;;;;;;5093349;28;20028;-84
2022/06/08 12:17:02;;;;;;;5.57;3.83;;;26.90;44.50;;;;;;5112868;27;20027;-83
2022/06/08 12:19:46;;;;;;;7.55;4.78;;;26.30;48.60;;;;;;5090006;28;20536;-83
2022/06/08 12:22:33;;;;;;;8.75;5.05;;;26.70;46.20;;;;;;5105351;27;20039;-83
2022/06/08 12:25:21;;;;;;;8.98;4.60;;;27.40;45.40;;;;;;5083341;28;20038;-83
2022/06/08 12:27:59;;;;;;;5.93;3.72;;;27.30;44.40;;;;;;5094117;28;20035;-83
2022/06/08 12:30:54;;;;;;;6.32;3.20;;;27.30;44.80;;;;;;5112580;28;20024;-84
2022/06/08 12:33:26;;;;;;;5.80;3.97;;;27.70;44.20;;;;;;5092033;27;20077;-83
2022/06/08 12:35:57;;;;;;;7.53;4.00;;;26.90;45.60;;;;;;5091229;28;20134;-83
2022/06/08 12:38:28;;;;;;;6.20;3.97;;;26.30;47.10;;;;;;5093342;28;20486;-83
2022/06/08 12:41:02;;;;;;;;;;;25.80;47.30;;;;;;5088430;27;20043;-83
2022/06/08 12:43:48;;;;;;;7.22;4.03;;;25.40;48.60;;;;;;5094885;28;19940;-85
2022/06/08 12:46:14;;;;;;;5.70;3.40;;;25.90;46.60;;;;;;5104496;28;20080;-85
2022/06/08 12:48:47;;;;;;;4.80;3.13;;;26.90;46.30;;;;;;5091806;28;20744;-85
2022/06/08 12:51:32;;;;;;;3.55;2.80;;;26.40;46.20;;;;;;5092769;28;20368;-85
2022/06/08 12:53:59;;;;;;;3.65;2.40;;;27.00;44.70;;;;;;5104975;28;20028;-85
2022/06/08 12:56:25;;;;;;;4.28;2.63;;;28.00;44.30;;;;;;5098522;27;20032;-84
2022/06/08 12:58:52;;;;;;;5.25;2.88;;;28.20;42.80;;;;;;5107758;27;20084;-83
2022/06/08 13:01:22;;;;;;;5.00;2.70;;;28.20;41.10;;;;;;5086976;28;20027;-83
2022/06/08 13:03:49;;;;;;;4.00;2.47;;;28.50;41.30;;;;;;5103403;28;20100;-84
2022/06/08 13:06:15;;;;;;;4.10;2.20;;;29.40;38.20;;;;;;5106885;28;20435;-84
2022/06/08 13:08:41;;;;;;;3.92;2.60;;;29.00;39.00;;;;;;5083525;28;20023;-84
2022/06/08 13:11:15;;;;;;;3.33;2.20;;;29.00;40.60;;;;;;5109302;28;20054;-84
2022/06/08 13:13:41;;;;;;;3.35;1.98;;;28.90;40.70;;;;;;5093246;28;20023;-83
2022/06/08 13:16:30;;;;;;;5.05;2.92;;;28.50;42.10;;;;;;5092122;28;20547;-84
2022/06/08 13:18:57;;;;;;;3.15;2.17;;;27.30;43.70;;;;;;5092272;28;20557;-84
2022/06/08 13:21:23;;;;;;;5.28;2.70;;;26.60;45.90;;;;;;5091050;28;20020;-84